Salt Lake City, Utah
Traffic Map
Current Weather Conditions
Salt Lake City, Utah
Few Clouds
Few Clouds
42°
Feels Like: 36°
Wind Chill: 36° Ceiling: Unl
Heat Index: 42° Visibility: 10mi
Dew Point: 36° Wind: 12mph
Humidity: 79% Direction: 140° (SE)
Pressure: 29.93in Gusts: 0mph
Raw Report DataKSLC 200754Z 14010KT 10SM FEW060 06/02 A2993 RMK AO2 SLP122 T00560022
Traffic Incident Summary
Active as of:
Severity:
Category:
InformationThere was an issue retrieving the traffic information for this location. Please try a different location or try again shortly.
Advertisements
Track Severe Weather on mobile